sensor_id;sensor_type;location;lat;lon;timestamp;P1;durP1;ratioP1;P2;durP2;ratioP2
22963;SDS011;11648;49.306;6.934;2022-07-29T00:02:14;3.80;;;1.50;;
22963;SDS011;11648;49.306;6.934;2022-07-29T00:04:41;3.30;;;1.50;;
22963;SDS011;11648;49.306;6.934;2022-07-29T00:07:08;4.17;;;1.40;;
22963;SDS011;11648;49.306;6.934;2022-07-29T00:09:35;3.13;;;1.40;;
22963;SDS011;11648;49.306;6.934;2022-07-29T00:12:17;4.33;;;1.73;;
22963;SDS011;11648;49.306;6.934;2022-07-29T00:14:51;3.83;;;1.63;;
22963;SDS011;11648;49.306;6.934;2022-07-29T00:17:18;4.10;;;1.90;;
22963;SDS011;11648;49.306;6.934;2022-07-29T00:19:45;3.40;;;1.53;;
22963;SDS011;11648;49.306;6.934;2022-07-29T00:22:11;2.97;;;1.43;;
22963;SDS011;11648;49.306;6.934;2022-07-29T00:24:38;4.13;;;1.73;;
22963;SDS011;11648;49.306;6.934;2022-07-29T00:27:05;4.80;;;1.90;;
22963;SDS011;11648;49.306;6.934;2022-07-29T00:29:32;3.53;;;1.57;;
22963;SDS011;11648;49.306;6.934;2022-07-29T00:32:00;4.90;;;1.77;;
22963;SDS011;11648;49.306;6.934;2022-07-29T00:34:27;2.93;;;1.50;;
22963;SDS011;11648;49.306;6.934;2022-07-29T00:37:12;3.43;;;1.37;;
22963;SDS011;11648;49.306;6.934;2022-07-29T00:39:39;2.33;;;1.57;;
22963;SDS011;11648;49.306;6.934;2022-07-29T00:42:05;4.03;;;1.60;;
22963;SDS011;11648;49.306;6.934;2022-07-29T00:44:36;5.10;;;1.63;;
22963;SDS011;11648;49.306;6.934;2022-07-29T00:47:04;2.17;;;1.30;;
22963;SDS011;11648;49.306;6.934;2022-07-29T00:49:31;2.70;;;1.70;;
22963;SDS011;11648;49.306;6.934;2022-07-29T00:52:00;2.57;;;1.50;;
22963;SDS011;11648;49.306;6.934;2022-07-29T00:54:28;3.07;;;1.50;;
22963;SDS011;11648;49.306;6.934;2022-07-29T00:56:57;2.93;;;1.50;;
22963;SDS011;11648;49.306;6.934;2022-07-29T00:59:25;4.87;;;1.80;;
22963;SDS011;11648;49.306;6.934;2022-07-29T01:02:00;2.60;;;1.57;;
22963;SDS011;11648;49.306;6.934;2022-07-29T01:04:28;3.13;;;1.57;;
22963;SDS011;11648;49.306;6.934;2022-07-29T01:06:57;6.43;;;1.73;;
22963;SDS011;11648;49.306;6.934;2022-07-29T01:09:24;5.57;;;1.93;;
22963;SDS011;11648;49.306;6.934;2022-07-29T01:12:13;4.20;;;1.87;;
22963;SDS011;11648;49.306;6.934;2022-07-29T01:14:42;3.10;;;1.90;;
22963;SDS011;11648;49.306;6.934;2022-07-29T01:17:12;4.57;;;1.60;;
22963;SDS011;11648;49.306;6.934;2022-07-29T01:22:31;4.33;;;1.57;;
22963;SDS011;11648;49.306;6.934;2022-07-29T01:25:20;4.10;;;1.80;;
22963;SDS011;11648;49.306;6.934;2022-07-29T01:30:29;6.57;;;1.70;;
22963;SDS011;11648;49.306;6.934;2022-07-29T01:33:00;3.73;;;1.60;;
22963;SDS011;11648;49.306;6.934;2022-07-29T01:35:31;4.50;;;1.80;;
22963;SDS011;11648;49.306;6.934;2022-07-29T01:38:15;3.67;;;1.70;;
22963;SDS011;11648;49.306;6.934;2022-07-29T01:41:19;2.53;;;1.80;;
22963;SDS011;11648;49.306;6.934;2022-07-29T01:43:53;4.17;;;1.70;;
22963;SDS011;11648;49.306;6.934;2022-07-29T01:46:25;2.63;;;1.60;;
22963;SDS011;11648;49.306;6.934;2022-07-29T01:48:58;2.80;;;1.50;;
22963;SDS011;11648;49.306;6.934;2022-07-29T01:51:33;4.47;;;1.70;;
22963;SDS011;11648;49.306;6.934;2022-07-29T01:57:03;3.73;;;1.67;;
22963;SDS011;11648;49.306;6.934;2022-07-29T01:59:33;3.50;;;1.80;;
22963;SDS011;11648;49.306;6.934;2022-07-29T02:02:02;4.23;;;1.50;;
22963;SDS011;11648;49.306;6.934;2022-07-29T02:04:29;4.67;;;1.90;;
22963;SDS011;11648;49.306;6.934;2022-07-29T02:06:59;4.33;;;1.90;;
22963;SDS011;11648;49.306;6.934;2022-07-29T02:09:28;3.50;;;1.80;;
22963;SDS011;11648;49.306;6.934;2022-07-29T02:11:56;6.20;;;1.80;;
22963;SDS011;11648;49.306;6.934;2022-07-29T02:14:25;4.50;;;1.80;;
22963;SDS011;11648;49.306;6.934;2022-07-29T02:16:57;2.20;;;1.57;;
22963;SDS011;11648;49.306;6.934;2022-07-29T02:19:26;3.63;;;1.87;;
22963;SDS011;11648;49.306;6.934;2022-07-29T02:21:55;4.33;;;2.30;;
22963;SDS011;11648;49.306;6.934;2022-07-29T02:24:24;4.80;;;1.70;;
22963;SDS011;11648;49.306;6.934;2022-07-29T02:26:52;2.97;;;1.70;;
22963;SDS011;11648;49.306;6.934;2022-07-29T02:29:21;4.03;;;1.77;;
22963;SDS011;11648;49.306;6.934;2022-07-29T02:31:49;3.83;;;2.03;;
22963;SDS011;11648;49.306;6.934;2022-07-29T02:34:18;3.83;;;1.80;;
22963;SDS011;11648;49.306;6.934;2022-07-29T02:36:47;5.90;;;1.80;;
22963;SDS011;11648;49.306;6.934;2022-07-29T02:39:15;3.27;;;1.70;;
22963;SDS011;11648;49.306;6.934;2022-07-29T02:41:44;3.03;;;1.90;;
22963;SDS011;11648;49.306;6.934;2022-07-29T02:44:14;2.93;;;2.00;;
22963;SDS011;11648;49.306;6.934;2022-07-29T02:46:54;3.40;;;1.90;;
22963;SDS011;11648;49.306;6.934;2022-07-29T02:50:00;3.43;;;2.07;;
22963;SDS011;11648;49.306;6.934;2022-07-29T02:52:35;3.47;;;1.90;;
22963;SDS011;11648;49.306;6.934;2022-07-29T02:55:16;4.13;;;2.10;;
22963;SDS011;11648;49.306;6.934;2022-07-29T02:57:49;3.30;;;2.27;;
22963;SDS011;11648;49.306;6.934;2022-07-29T03:00:21;3.23;;;2.10;;
22963;SDS011;11648;49.306;6.934;2022-07-29T03:02:53;3.97;;;1.70;;
22963;SDS011;11648;49.306;6.934;2022-07-29T03:05:22;6.93;;;2.00;;
22963;SDS011;11648;49.306;6.934;2022-07-29T03:07:54;4.03;;;1.90;;
22963;SDS011;11648;49.306;6.934;2022-07-29T03:10:24;2.77;;;1.60;;
22963;SDS011;11648;49.306;6.934;2022-07-29T03:12:52;4.63;;;2.30;;
22963;SDS011;11648;49.306;6.934;2022-07-29T03:15:21;2.40;;;1.80;;
22963;SDS011;11648;49.306;6.934;2022-07-29T03:17:50;3.33;;;2.00;;
22963;SDS011;11648;49.306;6.934;2022-07-29T03:20:19;6.10;;;1.93;;
22963;SDS011;11648;49.306;6.934;2022-07-29T03:22:45;4.40;;;2.20;;
22963;SDS011;11648;49.306;6.934;2022-07-29T03:25:15;3.63;;;2.10;;
22963;SDS011;11648;49.306;6.934;2022-07-29T03:27:44;4.30;;;2.10;;
22963;SDS011;11648;49.306;6.934;2022-07-29T03:30:11;3.63;;;2.33;;
22963;SDS011;11648;49.306;6.934;2022-07-29T03:32:48;5.80;;;2.33;;
22963;SDS011;11648;49.306;6.934;2022-07-29T03:35:17;3.63;;;2.13;;
22963;SDS011;11648;49.306;6.934;2022-07-29T03:37:45;2.70;;;1.80;;
22963;SDS011;11648;49.306;6.934;2022-07-29T03:40:13;3.23;;;1.80;;
22963;SDS011;11648;49.306;6.934;2022-07-29T03:42:44;3.97;;;2.43;;
22963;SDS011;11648;49.306;6.934;2022-07-29T03:45:13;2.83;;;2.00;;
22963;SDS011;11648;49.306;6.934;2022-07-29T03:47:45;3.70;;;2.20;;
22963;SDS011;11648;49.306;6.934;2022-07-29T03:50:20;3.43;;;2.10;;
22963;SDS011;11648;49.306;6.934;2022-07-29T03:52:48;3.20;;;2.17;;
22963;SDS011;11648;49.306;6.934;2022-07-29T03:55:15;3.03;;;2.33;;
22963;SDS011;11648;49.306;6.934;2022-07-29T03:57:42;3.77;;;2.40;;
22963;SDS011;11648;49.306;6.934;2022-07-29T04:00:11;3.77;;;2.30;;
22963;SDS011;11648;49.306;6.934;2022-07-29T04:02:38;4.67;;;2.30;;
22963;SDS011;11648;49.306;6.934;2022-07-29T04:05:11;3.87;;;2.43;;
22963;SDS011;11648;49.306;6.934;2022-07-29T04:07:38;3.80;;;2.10;;
22963;SDS011;11648;49.306;6.934;2022-07-29T04:10:05;3.33;;;2.27;;
22963;SDS011;11648;49.306;6.934;2022-07-29T04:12:32;3.67;;;2.20;;
22963;SDS011;11648;49.306;6.934;2022-07-29T04:14:58;3.77;;;2.30;;
22963;SDS011;11648;49.306;6.934;2022-07-29T04:17:25;4.23;;;2.40;;
22963;SDS011;11648;49.306;6.934;2022-07-29T04:19:51;3.27;;;2.10;;
22963;SDS011;11648;49.306;6.934;2022-07-29T04:22:18;3.43;;;2.13;;
22963;SDS011;11648;49.306;6.934;2022-07-29T04:24:44;4.17;;;2.20;;
22963;SDS011;11648;49.306;6.934;2022-07-29T04:27:11;4.17;;;2.43;;
22963;SDS011;11648;49.306;6.934;2022-07-29T04:29:38;4.00;;;2.30;;
22963;SDS011;11648;49.306;6.934;2022-07-29T04:32:22;5.40;;;2.00;;
22963;SDS011;11648;49.306;6.934;2022-07-29T04:34:50;3.90;;;2.33;;
22963;SDS011;11648;49.306;6.934;2022-07-29T04:37:16;4.20;;;2.10;;
22963;SDS011;11648;49.306;6.934;2022-07-29T04:39:43;3.93;;;2.10;;
22963;SDS011;11648;49.306;6.934;2022-07-29T04:42:09;5.17;;;2.40;;
22963;SDS011;11648;49.306;6.934;2022-07-29T04:44:36;4.80;;;2.27;;
22963;SDS011;11648;49.306;6.934;2022-07-29T04:47:07;3.57;;;2.40;;
22963;SDS011;11648;49.306;6.934;2022-07-29T04:49:37;3.67;;;2.40;;
22963;SDS011;11648;49.306;6.934;2022-07-29T04:52:04;3.27;;;2.33;;
22963;SDS011;11648;49.306;6.934;2022-07-29T04:54:31;4.00;;;2.20;;
22963;SDS011;11648;49.306;6.934;2022-07-29T04:56:58;3.53;;;2.17;;
22963;SDS011;11648;49.306;6.934;2022-07-29T04:59:24;6.00;;;2.57;;
22963;SDS011;11648;49.306;6.934;2022-07-29T05:01:52;3.27;;;2.30;;
22963;SDS011;11648;49.306;6.934;2022-07-29T05:04:19;3.50;;;2.33;;
22963;SDS011;11648;49.306;6.934;2022-07-29T05:06:46;6.93;;;2.70;;
22963;SDS011;11648;49.306;6.934;2022-07-29T05:09:13;3.07;;;2.27;;
22963;SDS011;11648;49.306;6.934;2022-07-29T05:11:40;6.30;;;2.20;;
22963;SDS011;11648;49.306;6.934;2022-07-29T05:14:06;4.77;;;2.50;;
22963;SDS011;11648;49.306;6.934;2022-07-29T05:16:33;2.70;;;1.90;;
22963;SDS011;11648;49.306;6.934;2022-07-29T05:19:00;3.93;;;2.60;;
22963;SDS011;11648;49.306;6.934;2022-07-29T05:21:26;3.37;;;2.30;;
22963;SDS011;11648;49.306;6.934;2022-07-29T05:23:53;5.53;;;2.50;;
22963;SDS011;11648;49.306;6.934;2022-07-29T05:26:20;3.13;;;2.17;;
22963;SDS011;11648;49.306;6.934;2022-07-29T05:28:46;4.83;;;2.00;;
22963;SDS011;11648;49.306;6.934;2022-07-29T05:31:13;4.37;;;1.90;;
22963;SDS011;11648;49.306;6.934;2022-07-29T05:33:41;2.77;;;1.90;;
22963;SDS011;11648;49.306;6.934;2022-07-29T05:36:08;4.47;;;2.33;;
22963;SDS011;11648;49.306;6.934;2022-07-29T05:38:35;4.47;;;2.30;;
22963;SDS011;11648;49.306;6.934;2022-07-29T05:41:02;2.87;;;2.00;;
22963;SDS011;11648;49.306;6.934;2022-07-29T05:43:29;4.13;;;1.80;;
22963;SDS011;11648;49.306;6.934;2022-07-29T05:45:56;4.67;;;1.90;;
22963;SDS011;11648;49.306;6.934;2022-07-29T05:48:23;2.97;;;1.73;;
22963;SDS011;11648;49.306;6.934;2022-07-29T05:50:50;3.57;;;2.13;;
22963;SDS011;11648;49.306;6.934;2022-07-29T05:53:17;6.90;;;2.10;;
22963;SDS011;11648;49.306;6.934;2022-07-29T05:55:47;5.07;;;2.43;;
22963;SDS011;11648;49.306;6.934;2022-07-29T05:58:15;3.73;;;2.00;;
22963;SDS011;11648;49.306;6.934;2022-07-29T06:00:41;3.70;;;2.13;;
22963;SDS011;11648;49.306;6.934;2022-07-29T06:03:08;2.90;;;1.83;;
22963;SDS011;11648;49.306;6.934;2022-07-29T06:05:34;4.60;;;1.90;;
22963;SDS011;11648;49.306;6.934;2022-07-29T06:08:01;3.03;;;1.60;;
22963;SDS011;11648;49.306;6.934;2022-07-29T06:10:28;3.70;;;2.00;;
22963;SDS011;11648;49.306;6.934;2022-07-29T06:12:55;3.83;;;1.77;;
22963;SDS011;11648;49.306;6.934;2022-07-29T06:15:21;5.33;;;1.93;;
22963;SDS011;11648;49.306;6.934;2022-07-29T06:17:48;3.67;;;1.60;;
22963;SDS011;11648;49.306;6.934;2022-07-29T06:20:27;4.57;;;2.00;;
22963;SDS011;11648;49.306;6.934;2022-07-29T06:22:57;5.57;;;2.27;;
22963;SDS011;11648;49.306;6.934;2022-07-29T06:25:24;3.43;;;1.83;;
22963;SDS011;11648;49.306;6.934;2022-07-29T06:27:51;4.47;;;1.90;;
22963;SDS011;11648;49.306;6.934;2022-07-29T06:30:18;4.47;;;1.90;;
22963;SDS011;11648;49.306;6.934;2022-07-29T06:32:45;5.23;;;1.93;;
22963;SDS011;11648;49.306;6.934;2022-07-29T06:35:11;5.77;;;1.80;;
22963;SDS011;11648;49.306;6.934;2022-07-29T06:37:58;4.73;;;1.73;;
22963;SDS011;11648;49.306;6.934;2022-07-29T06:40:25;7.40;;;1.90;;
22963;SDS011;11648;49.306;6.934;2022-07-29T06:43:11;2.93;;;2.10;;
22963;SDS011;11648;49.306;6.934;2022-07-29T06:45:38;4.73;;;2.10;;
22963;SDS011;11648;49.306;6.934;2022-07-29T06:48:07;6.77;;;1.97;;
22963;SDS011;11648;49.306;6.934;2022-07-29T06:50:34;7.47;;;2.10;;
22963;SDS011;11648;49.306;6.934;2022-07-29T06:53:01;3.30;;;1.90;;
22963;SDS011;11648;49.306;6.934;2022-07-29T06:55:28;3.47;;;1.87;;
22963;SDS011;11648;49.306;6.934;2022-07-29T06:57:54;4.70;;;1.83;;
22963;SDS011;11648;49.306;6.934;2022-07-29T07:00:21;3.03;;;1.67;;
22963;SDS011;11648;49.306;6.934;2022-07-29T07:02:48;3.15;;;1.80;;
22963;SDS011;11648;49.306;6.934;2022-07-29T07:05:14;3.07;;;1.73;;
22963;SDS011;11648;49.306;6.934;2022-07-29T07:07:41;4.67;;;1.77;;
22963;SDS011;11648;49.306;6.934;2022-07-29T07:10:08;6.13;;;1.67;;
22963;SDS011;11648;49.306;6.934;2022-07-29T07:12:34;3.40;;;1.67;;
22963;SDS011;11648;49.306;6.934;2022-07-29T07:15:01;4.22;;;1.80;;
22963;SDS011;11648;49.306;6.934;2022-07-29T07:17:28;3.55;;;2.05;;
22963;SDS011;11648;49.306;6.934;2022-07-29T07:19:55;4.85;;;1.65;;
22963;SDS011;11648;49.306;6.934;2022-07-29T07:22:21;3.75;;;1.80;;
22963;SDS011;11648;49.306;6.934;2022-07-29T07:24:48;3.28;;;2.00;;
22963;SDS011;11648;49.306;6.934;2022-07-29T07:27:14;3.30;;;1.90;;
22963;SDS011;11648;49.306;6.934;2022-07-29T07:29:41;2.97;;;1.80;;
22963;SDS011;11648;49.306;6.934;2022-07-29T07:32:09;2.85;;;1.63;;
22963;SDS011;11648;49.306;6.934;2022-07-29T07:34:36;5.38;;;2.28;;
22963;SDS011;11648;49.306;6.934;2022-07-29T07:37:04;3.67;;;1.88;;
22963;SDS011;11648;49.306;6.934;2022-07-29T07:39:31;4.82;;;2.05;;
22963;SDS011;11648;49.306;6.934;2022-07-29T07:41:58;5.45;;;2.00;;
22963;SDS011;11648;49.306;6.934;2022-07-29T07:44:25;3.95;;;1.80;;
22963;SDS011;11648;49.306;6.934;2022-07-29T07:46:51;4.40;;;2.30;;
22963;SDS011;11648;49.306;6.934;2022-07-29T07:49:19;3.78;;;1.90;;
22963;SDS011;11648;49.306;6.934;2022-07-29T07:51:46;3.88;;;2.00;;
22963;SDS011;11648;49.306;6.934;2022-07-29T07:54:16;2.95;;;1.85;;
22963;SDS011;11648;49.306;6.934;2022-07-29T07:56:45;2.92;;;1.85;;
22963;SDS011;11648;49.306;6.934;2022-07-29T07:59:18;5.72;;;2.20;;
22963;SDS011;11648;49.306;6.934;2022-07-29T08:01:44;3.25;;;1.90;;
22963;SDS011;11648;49.306;6.934;2022-07-29T08:04:21;4.32;;;2.10;;
22963;SDS011;11648;49.306;6.934;2022-07-29T08:06:53;7.32;;;2.00;;
22963;SDS011;11648;49.306;6.934;2022-07-29T08:09:23;4.57;;;2.13;;
22963;SDS011;11648;49.306;6.934;2022-07-29T08:11:56;4.15;;;2.05;;
22963;SDS011;11648;49.306;6.934;2022-07-29T08:14:24;5.60;;;2.20;;
22963;SDS011;11648;49.306;6.934;2022-07-29T08:16:51;4.32;;;2.00;;
22963;SDS011;11648;49.306;6.934;2022-07-29T08:19:18;5.35;;;2.20;;
22963;SDS011;11648;49.306;6.934;2022-07-29T08:21:44;4.35;;;2.15;;
22963;SDS011;11648;49.306;6.934;2022-07-29T08:24:11;5.57;;;2.33;;
22963;SDS011;11648;49.306;6.934;2022-07-29T08:26:56;4.13;;;2.08;;
22963;SDS011;11648;49.306;6.934;2022-07-29T08:29:23;5.22;;;2.10;;
22963;SDS011;11648;49.306;6.934;2022-07-29T08:31:50;7.97;;;2.63;;
22963;SDS011;11648;49.306;6.934;2022-07-29T08:34:17;8.32;;;2.92;;
22963;SDS011;11648;49.306;6.934;2022-07-29T08:36:50;9.30;;;2.85;;
22963;SDS011;11648;49.306;6.934;2022-07-29T08:39:17;6.90;;;2.90;;
22963;SDS011;11648;49.306;6.934;2022-07-29T08:41:44;8.20;;;2.97;;
22963;SDS011;11648;49.306;6.934;2022-07-29T08:44:22;4.68;;;2.58;;
22963;SDS011;11648;49.306;6.934;2022-07-29T08:46:56;9.00;;;3.13;;
22963;SDS011;11648;49.306;6.934;2022-07-29T08:49:22;6.68;;;2.90;;
22963;SDS011;11648;49.306;6.934;2022-07-29T08:51:49;6.22;;;2.70;;
22963;SDS011;11648;49.306;6.934;2022-07-29T08:54:18;7.70;;;2.97;;
22963;SDS011;11648;49.306;6.934;2022-07-29T08:56:48;7.07;;;3.00;;
22963;SDS011;11648;49.306;6.934;2022-07-29T08:59:17;6.07;;;2.30;;
22963;SDS011;11648;49.306;6.934;2022-07-29T09:01:48;4.85;;;2.30;;
22963;SDS011;11648;49.306;6.934;2022-07-29T09:04:19;4.53;;;2.58;;
22963;SDS011;11648;49.306;6.934;2022-07-29T09:06:48;5.93;;;2.17;;
22963;SDS011;11648;49.306;6.934;2022-07-29T09:09:17;8.27;;;2.28;;
22963;SDS011;11648;49.306;6.934;2022-07-29T09:11:44;7.03;;;1.77;;
22963;SDS011;11648;49.306;6.934;2022-07-29T09:14:11;4.43;;;2.15;;
22963;SDS011;11648;49.306;6.934;2022-07-29T09:16:55;3.70;;;1.90;;
22963;SDS011;11648;49.306;6.934;2022-07-29T09:19:23;3.80;;;1.70;;
22963;SDS011;11648;49.306;6.934;2022-07-29T09:21:52;5.43;;;1.67;;
22963;SDS011;11648;49.306;6.934;2022-07-29T09:24:42;4.60;;;1.80;;
22963;SDS011;11648;49.306;6.934;2022-07-29T09:27:21;4.95;;;1.65;;
22963;SDS011;11648;49.306;6.934;2022-07-29T09:30:07;4.80;;;1.80;;
22963;SDS011;11648;49.306;6.934;2022-07-29T09:32:56;3.67;;;1.50;;
22963;SDS011;11648;49.306;6.934;2022-07-29T09:35:25;3.45;;;1.77;;
22963;SDS011;11648;49.306;6.934;2022-07-29T09:37:52;3.83;;;1.75;;
22963;SDS011;11648;49.306;6.934;2022-07-29T09:40:23;4.45;;;1.63;;
22963;SDS011;11648;49.306;6.934;2022-07-29T09:42:51;7.15;;;1.92;;
22963;SDS011;11648;49.306;6.934;2022-07-29T09:45:53;3.88;;;1.50;;
22963;SDS011;11648;49.306;6.934;2022-07-29T09:48:23;6.18;;;1.55;;
22963;SDS011;11648;49.306;6.934;2022-07-29T09:50:51;5.10;;;1.60;;
22963;SDS011;11648;49.306;6.934;2022-07-29T09:53:31;5.75;;;1.65;;
22963;SDS011;11648;49.306;6.934;2022-07-29T09:55:59;3.83;;;1.35;;
22963;SDS011;11648;49.306;6.934;2022-07-29T09:58:27;3.22;;;1.27;;
22963;SDS011;11648;49.306;6.934;2022-07-29T10:00:54;2.85;;;1.15;;
22963;SDS011;11648;49.306;6.934;2022-07-29T10:03:22;2.72;;;1.27;;
22963;SDS011;11648;49.306;6.934;2022-07-29T10:06:08;3.30;;;1.27;;
22963;SDS011;11648;49.306;6.934;2022-07-29T10:08:36;8.10;;;3.30;;
22963;SDS011;11648;49.306;6.934;2022-07-29T10:13:36;4.43;;;1.40;;
22963;SDS011;11648;49.306;6.934;2022-07-29T10:16:04;2.40;;;1.00;;
22963;SDS011;11648;49.306;6.934;2022-07-29T10:18:32;4.65;;;1.30;;
22963;SDS011;11648;49.306;6.934;2022-07-29T10:20:59;3.42;;;1.23;;
22963;SDS011;11648;49.306;6.934;2022-07-29T10:23:28;4.22;;;1.20;;
22963;SDS011;11648;49.306;6.934;2022-07-29T10:26:12;5.43;;;1.33;;
22963;SDS011;11648;49.306;6.934;2022-07-29T10:28:39;2.33;;;1.20;;
22963;SDS011;11648;49.306;6.934;2022-07-29T10:31:06;4.20;;;1.38;;
22963;SDS011;11648;49.306;6.934;2022-07-29T10:33:47;4.90;;;1.58;;
22963;SDS011;11648;49.306;6.934;2022-07-29T10:42:18;3.40;;;1.60;;
22963;SDS011;11648;49.306;6.934;2022-07-29T10:45:00;6.00;;;1.45;;
22963;SDS011;11648;49.306;6.934;2022-07-29T10:47:29;3.58;;;1.40;;
22963;SDS011;11648;49.306;6.934;2022-07-29T10:55:38;4.43;;;1.50;;
22963;SDS011;11648;49.306;6.934;2022-07-29T11:00:45;5.70;;;1.30;;
22963;SDS011;11648;49.306;6.934;2022-07-29T11:06:18;3.05;;;1.35;;
22963;SDS011;11648;49.306;6.934;2022-07-29T11:12:00;3.88;;;1.23;;
22963;SDS011;11648;49.306;6.934;2022-07-29T11:17:25;1.75;;;1.10;;
22963;SDS011;11648;49.306;6.934;2022-07-29T11:19:53;2.35;;;1.05;;
22963;SDS011;11648;49.306;6.934;2022-07-29T11:22:57;5.63;;;1.33;;
22963;SDS011;11648;49.306;6.934;2022-07-29T11:25:24;6.70;;;1.30;;
22963;SDS011;11648;49.306;6.934;2022-07-29T11:28:16;2.95;;;1.20;;
22963;SDS011;11648;49.306;6.934;2022-07-29T11:30:51;3.75;;;1.38;;
22963;SDS011;11648;49.306;6.934;2022-07-29T11:33:26;7.68;;;1.50;;
22963;SDS011;11648;49.306;6.934;2022-07-29T11:36:14;2.92;;;1.48;;
22963;SDS011;11648;49.306;6.934;2022-07-29T11:38:42;5.50;;;1.30;;
22963;SDS011;11648;49.306;6.934;2022-07-29T11:41:19;4.32;;;1.20;;
22963;SDS011;11648;49.306;6.934;2022-07-29T11:43:47;4.13;;;1.55;;
22963;SDS011;11648;49.306;6.934;2022-07-29T11:49:13;3.63;;;1.55;;
22963;SDS011;11648;49.306;6.934;2022-07-29T11:51:53;3.35;;;1.23;;
22963;SDS011;11648;49.306;6.934;2022-07-29T11:54:24;3.58;;;1.23;;
22963;SDS011;11648;49.306;6.934;2022-07-29T11:57:21;4.03;;;1.50;;
22963;SDS011;11648;49.306;6.934;2022-07-29T11:59:47;4.75;;;1.70;;
22963;SDS011;11648;49.306;6.934;2022-07-29T12:02:16;6.40;;;1.45;;
22963;SDS011;11648;49.306;6.934;2022-07-29T12:05:02;5.68;;;1.30;;
22963;SDS011;11648;49.306;6.934;2022-07-29T12:07:37;4.25;;;1.50;;
22963;SDS011;11648;49.306;6.934;2022-07-29T12:10:06;2.65;;;1.13;;
22963;SDS011;11648;49.306;6.934;2022-07-29T12:12:44;5.15;;;1.65;;
22963;SDS011;11648;49.306;6.934;2022-07-29T12:15:18;4.82;;;1.50;;
22963;SDS011;11648;49.306;6.934;2022-07-29T12:17:47;3.65;;;1.45;;
22963;SDS011;11648;49.306;6.934;2022-07-29T12:20:21;2.92;;;1.50;;
22963;SDS011;11648;49.306;6.934;2022-07-29T12:22:55;4.32;;;1.38;;
22963;SDS011;11648;49.306;6.934;2022-07-29T12:25:22;5.30;;;1.50;;
22963;SDS011;11648;49.306;6.934;2022-07-29T12:28:00;3.03;;;1.35;;
22963;SDS011;11648;49.306;6.934;2022-07-29T12:31:01;3.80;;;1.83;;
22963;SDS011;11648;49.306;6.934;2022-07-29T12:33:22;5.40;;;1.48;;
22963;SDS011;11648;49.306;6.934;2022-07-29T12:35:54;4.50;;;1.45;;
22963;SDS011;11648;49.306;6.934;2022-07-29T12:38:42;3.30;;;1.40;;
22963;SDS011;11648;49.306;6.934;2022-07-29T12:41:09;5.10;;;1.38;;
22963;SDS011;11648;49.306;6.934;2022-07-29T12:43:36;4.28;;;1.42;;
22963;SDS011;11648;49.306;6.934;2022-07-29T12:46:13;3.05;;;1.40;;
22963;SDS011;11648;49.306;6.934;2022-07-29T12:48:42;3.75;;;1.67;;
22963;SDS011;11648;49.306;6.934;2022-07-29T12:51:10;3.97;;;1.50;;
22963;SDS011;11648;49.306;6.934;2022-07-29T12:53:38;3.75;;;1.40;;
22963;SDS011;11648;49.306;6.934;2022-07-29T12:56:05;5.10;;;1.20;;
22963;SDS011;11648;49.306;6.934;2022-07-29T12:59:10;4.05;;;1.15;;
22963;SDS011;11648;49.306;6.934;2022-07-29T13:01:38;3.40;;;1.42;;
22963;SDS011;11648;49.306;6.934;2022-07-29T13:04:04;5.93;;;1.77;;
22963;SDS011;11648;49.306;6.934;2022-07-29T13:06:41;5.07;;;1.70;;
22963;SDS011;11648;49.306;6.934;2022-07-29T13:09:17;3.00;;;1.40;;
22963;SDS011;11648;49.306;6.934;2022-07-29T13:11:46;3.25;;;1.30;;
22963;SDS011;11648;49.306;6.934;2022-07-29T13:22:11;4.85;;;1.67;;
22963;SDS011;11648;49.306;6.934;2022-07-29T13:24:59;4.20;;;1.40;;
22963;SDS011;11648;49.306;6.934;2022-07-29T13:27:29;4.72;;;1.42;;
22963;SDS011;11648;49.306;6.934;2022-07-29T13:29:58;4.43;;;1.40;;
22963;SDS011;11648;49.306;6.934;2022-07-29T13:32:27;6.10;;;1.75;;
22963;SDS011;11648;49.306;6.934;2022-07-29T13:34:55;5.35;;;1.80;;
22963;SDS011;11648;49.306;6.934;2022-07-29T13:37:23;4.50;;;1.67;;
22963;SDS011;11648;49.306;6.934;2022-07-29T13:39:50;8.95;;;2.05;;
22963;SDS011;11648;49.306;6.934;2022-07-29T13:42:18;4.43;;;1.52;;
22963;SDS011;11648;49.306;6.934;2022-07-29T13:44:45;4.53;;;1.55;;
22963;SDS011;11648;49.306;6.934;2022-07-29T13:47:12;6.60;;;1.67;;
22963;SDS011;11648;49.306;6.934;2022-07-29T13:49:39;7.43;;;1.52;;
22963;SDS011;11648;49.306;6.934;2022-07-29T13:52:05;5.35;;;1.60;;
22963;SDS011;11648;49.306;6.934;2022-07-29T13:54:33;5.55;;;2.05;;
22963;SDS011;11648;49.306;6.934;2022-07-29T13:57:07;6.10;;;1.58;;
22963;SDS011;11648;49.306;6.934;2022-07-29T13:59:36;1.92;;;1.20;;
22963;SDS011;11648;49.306;6.934;2022-07-29T14:02:03;4.53;;;1.50;;
22963;SDS011;11648;49.306;6.934;2022-07-29T14:04:31;5.28;;;2.08;;
22963;SDS011;11648;49.306;6.934;2022-07-29T14:06:58;5.93;;;2.17;;
22963;SDS011;11648;49.306;6.934;2022-07-29T14:09:29;4.50;;;2.00;;
22963;SDS011;11648;49.306;6.934;2022-07-29T14:12:07;4.20;;;1.58;;
22963;SDS011;11648;49.306;6.934;2022-07-29T14:14:34;4.95;;;2.10;;
22963;SDS011;11648;49.306;6.934;2022-07-29T14:17:02;7.30;;;1.88;;
22963;SDS011;11648;49.306;6.934;2022-07-29T14:19:29;7.15;;;1.70;;
22963;SDS011;11648;49.306;6.934;2022-07-29T14:21:58;4.07;;;1.60;;
22963;SDS011;11648;49.306;6.934;2022-07-29T14:24:25;4.75;;;2.00;;
22963;SDS011;11648;49.306;6.934;2022-07-29T14:26:52;3.88;;;1.85;;
22963;SDS011;11648;49.306;6.934;2022-07-29T14:29:18;3.47;;;1.65;;
22963;SDS011;11648;49.306;6.934;2022-07-29T14:31:45;3.97;;;1.58;;
22963;SDS011;11648;49.306;6.934;2022-07-29T14:34:12;2.92;;;1.60;;
22963;SDS011;11648;49.306;6.934;2022-07-29T14:36:38;4.85;;;1.65;;
22963;SDS011;11648;49.306;6.934;2022-07-29T14:39:05;4.20;;;1.70;;
22963;SDS011;11648;49.306;6.934;2022-07-29T14:41:31;5.15;;;1.80;;
22963;SDS011;11648;49.306;6.934;2022-07-29T14:43:59;4.03;;;1.83;;
22963;SDS011;11648;49.306;6.934;2022-07-29T14:46:28;4.63;;;1.90;;
22963;SDS011;11648;49.306;6.934;2022-07-29T14:48:54;7.47;;;2.08;;
22963;SDS011;11648;49.306;6.934;2022-07-29T14:51:21;5.57;;;2.15;;
22963;SDS011;11648;49.306;6.934;2022-07-29T14:53:48;4.18;;;2.30;;
22963;SDS011;11648;49.306;6.934;2022-07-29T14:56:14;5.88;;;2.20;;
22963;SDS011;11648;49.306;6.934;2022-07-29T14:59:01;5.70;;;2.10;;
22963;SDS011;11648;49.306;6.934;2022-07-29T15:01:27;5.35;;;2.25;;
22963;SDS011;11648;49.306;6.934;2022-07-29T15:03:55;8.30;;;2.20;;
22963;SDS011;11648;49.306;6.934;2022-07-29T15:06:25;7.35;;;2.38;;
22963;SDS011;11648;49.306;6.934;2022-07-29T15:08:52;3.60;;;1.80;;
22963;SDS011;11648;49.306;6.934;2022-07-29T15:11:20;5.32;;;2.03;;
22963;SDS011;11648;49.306;6.934;2022-07-29T15:13:46;10.02;;;2.30;;
22963;SDS011;11648;49.306;6.934;2022-07-29T15:16:13;7.97;;;2.28;;
22963;SDS011;11648;49.306;6.934;2022-07-29T15:18:39;5.78;;;2.15;;
22963;SDS011;11648;49.306;6.934;2022-07-29T15:21:06;3.80;;;2.10;;
22963;SDS011;11648;49.306;6.934;2022-07-29T15:23:33;5.78;;;1.90;;
22963;SDS011;11648;49.306;6.934;2022-07-29T15:26:03;7.32;;;2.17;;
22963;SDS011;11648;49.306;6.934;2022-07-29T15:28:30;7.32;;;1.90;;
22963;SDS011;11648;49.306;6.934;2022-07-29T15:30:57;5.90;;;1.90;;
22963;SDS011;11648;49.306;6.934;2022-07-29T15:33:25;6.40;;;2.55;;
22963;SDS011;11648;49.306;6.934;2022-07-29T15:35:51;11.75;;;2.13;;
22963;SDS011;11648;49.306;6.934;2022-07-29T15:38:18;3.90;;;2.25;;
22963;SDS011;11648;49.306;6.934;2022-07-29T15:40:53;9.98;;;2.40;;
22963;SDS011;11648;49.306;6.934;2022-07-29T15:43:20;6.97;;;2.10;;
22963;SDS011;11648;49.306;6.934;2022-07-29T15:45:46;12.73;;;2.28;;
22963;SDS011;11648;49.306;6.934;2022-07-29T15:48:32;3.28;;;1.90;;
22963;SDS011;11648;49.306;6.934;2022-07-29T15:50:59;4.25;;;1.80;;
22963;SDS011;11648;49.306;6.934;2022-07-29T15:53:26;3.80;;;1.77;;